Time;durP1;ratioP1;P1;durP2;ratioP2;P2;SDS_P1;SDS_P2;PMS_P1;PMS_P2;Temp;Humidity;BMP_temperature;BMP_pressure;BME280_temperature;BME280_humidity;BME280_pressure;Samples;Min_cycle;Max_cycle;Signal;HPM_P1;HPM_P2
2022/11/02 00:02:02;;;;;;;70.93;6.00;;;13.50;90.90;;;;;;5041178;28;20161;-87
2022/11/02 00:04:28;;;;;;;70.20;6.23;;;13.50;90.90;;;;;;5041312;28;20164;-87
2022/11/02 00:06:54;;;;;;;73.53;6.30;;;13.50;90.90;;;;;;5040973;28;20411;-86
2022/11/02 00:09:20;;;;;;;78.67;6.70;;;13.60;89.60;;;;;;5041011;28;20216;-86
2022/11/02 00:11:45;;;;;;;71.27;5.80;;;13.60;90.10;;;;;;5040528;28;20767;-86
2022/11/02 00:14:11;;;;;;;72.77;6.47;;;13.50;90.00;;;;;;5040100;28;20169;-86
2022/11/02 00:16:39;;;;;;;82.07;6.13;;;13.50;90.50;;;;;;5040950;28;20166;-86
2022/11/02 00:19:07;;;;;;;73.30;5.00;;;13.50;90.80;;;;;;5039860;28;20698;-86
2022/11/02 00:21:34;;;;;;;76.53;6.63;;;13.50;91.00;;;;;;5040107;28;20589;-87
2022/11/02 00:24:00;;;;;;;71.10;5.47;;;13.50;91.00;;;;;;5039953;28;20819;-86
2022/11/02 00:26:27;;;;;;;73.97;5.20;;;13.60;91.00;;;;;;5040358;28;20534;-86
2022/11/02 00:28:54;;;;;;;70.40;5.43;;;13.50;90.30;;;;;;5040909;28;20192;-86
2022/11/02 00:31:20;;;;;;;71.73;4.67;;;13.60;90.50;;;;;;5041399;28;20407;-86
2022/11/02 00:33:46;;;;;;;77.03;4.93;;;13.60;89.50;;;;;;5040193;28;20408;-86
2022/11/02 00:36:12;;;;;;;73.97;6.67;;;13.60;89.50;;;;;;5040199;28;20170;-86
2022/11/02 00:38:37;;;;;;;71.50;6.00;;;13.60;87.60;;;;;;5040094;28;20399;-86
2022/11/02 00:41:03;;;;;;;69.73;5.20;;;13.50;88.60;;;;;;5040322;28;20431;-86
2022/11/02 00:43:29;;;;;;;71.00;5.67;;;13.50;90.20;;;;;;5039610;28;20633;-86
2022/11/02 00:45:55;;;;;;;72.67;6.43;;;13.60;90.10;;;;;;5040070;28;20262;-86
2022/11/02 00:48:21;;;;;;;71.10;6.07;;;13.50;90.20;;;;;;5040574;28;20611;-85
2022/11/02 00:50:47;;;;;;;73.90;6.00;;;13.50;89.70;;;;;;5040101;28;20396;-87
2022/11/02 00:53:12;;;;;;;69.40;6.00;;;13.40;90.20;;;;;;5039053;28;20502;-86
2022/11/02 00:55:38;;;;;;;71.50;6.83;;;13.40;91.20;;;;;;5040218;28;20173;-86
2022/11/02 00:58:04;;;;;;;71.93;6.03;;;13.40;91.10;;;;;;5040333;28;20486;-87
2022/11/02 01:00:29;;;;;;;72.47;6.83;;;13.40;91.00;;;;;;5040302;28;20192;-87
2022/11/02 01:03:01;;;;;;;73.53;5.77;;;13.40;91.50;;;;;;5039300;28;20533;-87
2022/11/02 01:05:27;;;;;;;68.40;6.23;;;13.40;92.60;;;;;;5040139;28;20239;-87
2022/11/02 01:07:53;;;;;;;70.27;6.23;;;13.30;93.80;;;;;;5039897;28;20408;-87
2022/11/02 01:10:19;;;;;;;72.33;6.60;;;13.30;93.60;;;;;;5039007;28;20427;-87
2022/11/02 01:12:45;;;;;;;69.47;6.77;;;13.30;93.60;;;;;;5041026;28;20169;-86
2022/11/02 01:15:11;;;;;;;72.03;6.63;;;13.20;94.60;;;;;;5041068;28;20408;-86
2022/11/02 01:17:37;;;;;;;68.97;6.10;;;13.20;95.60;;;;;;5039692;28;20219;-86
2022/11/02 01:20:04;;;;;;;74.57;7.57;;;13.20;95.50;;;;;;5039894;28;20436;-87
2022/11/02 01:22:30;;;;;;;72.53;6.80;;;13.30;95.10;;;;;;5039338;28;20987;-86
2022/11/02 01:24:56;;;;;;;71.20;6.70;;;13.30;94.20;;;;;;5039922;28;20452;-86
2022/11/02 01:27:25;;;;;;;69.07;6.90;;;13.30;93.80;;;;;;5039262;28;20408;-87
2022/11/02 01:29:50;;;;;;;70.13;6.38;;;13.20;95.10;;;;;;5039237;28;20247;-87
2022/11/02 01:32:16;;;;;;;69.50;6.10;;;13.30;94.70;;;;;;5039121;28;20641;-87
2022/11/02 01:34:42;;;;;;;77.63;7.73;;;13.20;94.70;;;;;;5039631;28;20176;-86
2022/11/02 01:37:08;;;;;;;69.87;7.37;;;13.20;96.00;;;;;;5037963;28;20181;-87
2022/11/02 01:39:35;;;;;;;68.07;6.17;;;13.10;97.00;;;;;;5037862;28;20518;-87
2022/11/02 01:42:01;;;;;;;68.47;6.63;;;13.10;96.80;;;;;;5039625;28;20495;-86
2022/11/02 01:44:35;;;;;;;71.70;7.17;;;13.10;97.10;;;;;;5039352;28;20428;-86
2022/11/02 01:47:11;;;;;;;71.20;7.80;;;13.10;97.60;;;;;;5040152;28;20794;-87
2022/11/02 01:49:40;;;;;;;69.63;6.60;;;13.10;97.60;;;;;;5039090;28;20511;-86
2022/11/02 01:52:41;;;;;;;73.82;7.18;;;13.10;97.50;;;;;;5039582;28;20404;-87
2022/11/02 01:55:24;;;;;;;72.40;6.70;;;13.00;98.40;;;;;;4978640;28;20182;-86
2022/11/02 01:57:56;;;;;;;76.10;7.13;;;13.10;98.10;;;;;;5034051;28;20408;-86
2022/11/02 02:00:23;;;;;;;73.95;7.78;;;13.00;98.90;;;;;;5037691;28;20432;-86
2022/11/02 02:02:59;;;;;;;75.38;6.68;;;13.00;99.30;;;;;;5039356;28;20170;-87
2022/11/02 02:05:25;;;;;;;73.63;6.90;;;13.00;99.10;;;;;;5039354;28;20211;-86
2022/11/02 02:07:52;;;;;;;69.57;7.53;;;13.00;98.60;;;;;;5056336;28;20408;-86
2022/11/02 02:10:18;;;;;;;72.55;6.95;;;13.00;98.90;;;;;;5043027;28;20423;-86
2022/11/02 02:12:44;;;;;;;79.10;8.70;;;13.00;99.30;;;;;;5041471;28;20248;-87
2022/11/02 02:15:12;;;;;;;72.22;7.43;;;13.10;99.30;;;;;;5058450;28;20173;-86
2022/11/02 02:17:50;;;;;;;71.10;7.20;;;13.10;98.40;;;;;;5043330;28;20168;-86
2022/11/02 02:20:52;;;;;;;71.25;7.07;;;13.10;98.70;;;;;;5042334;28;20439;-86
2022/11/02 02:23:43;;;;;;;74.40;6.15;;;13.10;99.90;;;;;;5012533;28;20273;-86
2022/11/02 02:26:12;;;;;;;72.72;6.63;;;13.00;99.90;;;;;;5042624;28;20196;-86
2022/11/02 02:28:44;;;;;;;73.00;7.30;;;13.00;99.90;;;;;;5041394;28;20618;-86
2022/11/02 02:31:24;;;;;;;71.90;7.35;;;13.00;99.90;;;;;;5043364;28;20182;-86
2022/11/02 02:34:11;;;;;;;73.80;7.87;;;13.10;99.90;;;;;;5025348;28;20157;-86
2022/11/02 02:36:51;;;;;;;68.97;8.50;;;13.00;99.90;;;;;;5043108;28;20380;-85
2022/11/02 02:39:32;;;;;;;75.70;7.60;;;13.00;99.90;;;;;;5043474;28;20458;-86
2022/11/02 02:42:35;;;;;;;69.10;6.28;;;13.00;99.90;;;;;;5042847;28;20573;-86
2022/11/02 02:45:25;;;;;;;74.37;9.93;;;13.10;99.90;;;;;;5010905;28;20204;-86
2022/11/02 02:48:02;;;;;;;75.63;7.90;;;13.10;99.90;;;;;;5042920;28;20380;-86
2022/11/02 02:50:38;;;;;;;76.88;7.18;;;13.10;99.90;;;;;;5042575;28;20248;-86
2022/11/02 02:53:06;;;;;;;74.70;7.75;;;13.10;99.90;;;;;;5041873;28;20150;-86
2022/11/02 02:55:38;;;;;;;70.78;7.18;;;13.00;99.90;;;;;;5042500;28;20227;-86
2022/11/02 02:58:09;;;;;;;75.00;8.05;;;13.00;99.90;;;;;;5042738;28;20295;-86
2022/11/02 03:00:36;;;;;;;74.15;8.68;;;13.00;99.90;;;;;;5057729;28;20386;-86
2022/11/02 03:03:25;;;;;;;82.25;8.32;;;13.00;99.90;;;;;;5058206;28;20169;-86
2022/11/02 03:06:03;;;;;;;67.07;6.95;;;13.00;99.90;;;;;;5041900;28;20196;-86
2022/11/02 03:08:30;;;;;;;68.20;6.32;;;12.90;99.90;;;;;;5040385;28;20171;-86
2022/11/02 03:11:02;;;;;;;69.88;6.45;;;13.00;99.90;;;;;;5041755;28;20164;-87
2022/11/02 03:13:58;;;;;;;70.47;6.68;;;13.10;99.90;;;;;;5041755;28;20165;-87
2022/11/02 03:16:41;;;;;;;71.97;5.70;;;13.10;99.90;;;;;;5042285;28;20176;-86
2022/11/02 03:19:10;;;;;;;69.07;5.63;;;13.10;99.90;;;;;;5041551;28;20228;-87
2022/11/02 03:21:44;;;;;;;73.17;5.93;;;13.10;99.90;;;;;;5042030;28;20169;-86
2022/11/02 03:24:18;;;;;;;72.00;6.57;;;13.20;99.90;;;;;;5041548;28;20957;-86
2022/11/02 03:26:57;;;;;;;69.87;5.90;;;13.20;99.90;;;;;;5042110;28;20399;-86
2022/11/02 03:29:33;;;;;;;76.18;6.57;;;13.20;99.90;;;;;;5041858;28;20784;-86
2022/11/02 03:32:25;;;;;;;71.47;6.23;;;13.20;99.90;;;;;;5041771;28;20157;-87
2022/11/02 03:34:58;;;;;;;68.05;6.15;;;13.20;99.90;;;;;;5041619;28;20388;-86
2022/11/02 03:37:27;;;;;;;68.40;5.63;;;13.20;99.90;;;;;;5041570;28;20728;-87
2022/11/02 03:40:17;;;;;;;69.53;5.45;;;13.20;99.90;;;;;;5041318;28;20431;-86
2022/11/02 03:42:45;;;;;;;68.00;5.50;;;13.20;99.90;;;;;;5040664;28;20185;-86
2022/11/02 03:45:21;;;;;;;72.85;5.72;;;13.20;99.90;;;;;;5040474;28;20444;-86
2022/11/02 03:48:09;;;;;;;71.87;6.97;;;13.20;99.90;;;;;;5041080;28;20227;-86
2022/11/02 03:50:39;;;;;;;70.75;5.63;;;13.20;99.90;;;;;;5039927;28;20424;-86
2022/11/02 03:53:16;;;;;;;68.07;6.05;;;13.10;99.90;;;;;;5039649;28;20256;-87
2022/11/02 03:55:49;;;;;;;78.07;6.77;;;13.10;99.90;;;;;;5041123;28;20189;-87
2022/11/02 03:58:15;;;;;;;69.15;6.43;;;13.10;99.90;;;;;;5040892;28;20404;-87
2022/11/02 04:00:57;;;;;;;70.83;7.57;;;13.00;99.90;;;;;;5039521;28;20204;-86
2022/11/02 04:03:24;;;;;;;74.10;6.82;;;12.90;99.90;;;;;;5040725;28;20442;-86
2022/11/02 04:05:50;;;;;;;73.05;7.75;;;12.90;99.90;;;;;;5040470;28;20189;-86
2022/11/02 04:08:28;;;;;;;68.30;6.90;;;12.90;99.90;;;;;;5040883;28;20215;-86
2022/11/02 04:16:22;;;;;;;72.17;5.53;;;13.00;99.90;;;;;;5040607;28;20164;-86
2022/11/02 04:21:32;;;;;;;71.00;5.93;;;13.10;97.20;;;;;;5041113;28;20215;-86
2022/11/02 04:26:42;;;;;;;68.72;5.60;;;13.10;96.20;;;;;;5040225;28;20454;-86
2022/11/02 04:29:09;;;;;;;73.63;6.70;;;13.10;94.60;;;;;;5040760;28;20284;-86
2022/11/02 04:31:35;;;;;;;72.35;5.93;;;13.10;94.80;;;;;;5039257;28;20197;-86
2022/11/02 04:34:01;;;;;;;73.37;6.07;;;13.10;91.40;;;;;;5039660;28;20174;-86
2022/11/02 04:36:30;;;;;;;68.53;4.13;;;13.10;84.50;;;;;;5039915;28;20407;-85
2022/11/02 04:38:56;;;;;;;70.72;5.45;;;13.10;76.20;;;;;;5037948;28;20200;-86
2022/11/02 04:41:41;;;;;;;69.38;4.43;;;13.10;80.00;;;;;;5038524;28;20169;-86
2022/11/02 04:44:08;;;;;;;74.47;4.85;;;13.10;75.30;;;;;;5038807;28;20157;-87
2022/11/02 04:46:36;;;;;;;69.57;5.10;;;13.00;76.30;;;;;;5039191;28;20192;-86
2022/11/02 04:49:02;;;;;;;69.85;4.50;;;13.10;71.70;;;;;;5037490;28;20419;-84
2022/11/02 04:51:29;;;;;;;68.45;4.75;;;13.00;71.00;;;;;;5039416;28;20168;-86
2022/11/02 04:53:56;;;;;;;73.70;6.80;;;13.00;71.10;;;;;;5055102;28;20169;-85
2022/11/02 04:56:23;;;;;;;73.85;4.95;;;13.00;74.10;;;;;;5038176;28;20176;-85
2022/11/02 04:58:50;;;;;;;68.57;5.75;;;13.00;68.80;;;;;;5038968;28;20181;-86
2022/11/02 05:01:18;;;;;;;70.70;4.70;;;13.10;72.10;;;;;;5038244;28;20165;-86
2022/11/02 05:03:48;;;;;;;69.27;5.07;;;13.10;72.40;;;;;;5039160;28;20165;-85
2022/11/02 05:06:15;;;;;;;77.28;5.07;;;13.00;71.70;;;;;;5039365;28;20466;-85
2022/11/02 05:08:41;;;;;;;73.07;5.43;;;13.00;72.90;;;;;;5039433;28;20557;-86
2022/11/02 05:11:09;;;;;;;75.60;5.13;;;13.00;77.20;;;;;;5038976;28;20248;-86
2022/11/02 05:13:37;;;;;;;71.63;4.45;;;13.00;73.60;;;;;;5039187;28;20427;-86
2022/11/02 05:16:04;;;;;;;75.07;5.22;;;13.00;75.10;;;;;;5039928;28;20165;-85
2022/11/02 05:18:30;;;;;;;69.75;5.10;;;13.00;77.20;;;;;;5053512;28;20169;-86
2022/11/02 05:20:59;;;;;;;72.47;5.00;;;13.00;73.90;;;;;;5039460;28;20169;-85
2022/11/02 05:23:25;;;;;;;71.63;5.50;;;13.00;74.40;;;;;;5039037;28;20434;-86
2022/11/02 05:25:52;;;;;;;69.78;5.22;;;13.00;76.00;;;;;;5039794;28;20330;-85
2022/11/02 05:28:18;;;;;;;68.72;5.00;;;13.00;78.20;;;;;;5108766;22;20169;-86
2022/11/02 05:30:44;;;;;;;68.53;4.90;;;12.90;77.10;;;;;;5020064;28;20249;-86
2022/11/02 05:33:12;;;;;;;69.77;5.10;;;12.90;78.80;;;;;;5034590;28;20166;-86
2022/11/02 05:35:38;;;;;;;73.45;5.50;;;12.80;81.90;;;;;;5019523;28;20862;-86
2022/11/02 05:38:04;;;;;;;69.97;5.70;;;12.80;82.80;;;;;;5019763;28;20205;-84
2022/11/02 05:40:29;;;;;;;74.93;5.33;;;12.80;82.30;;;;;;5019717;28;20531;-84
2022/11/02 05:43:02;;;;;;;73.37;5.27;;;12.80;82.70;;;;;;5023322;28;20170;-84
2022/11/02 05:45:27;;;;;;;77.38;5.10;;;12.80;83.50;;;;;;5038479;28;20205;-84
2022/11/02 05:47:53;;;;;;;73.33;4.77;;;12.80;84.10;;;;;;5023327;28;20166;-84
2022/11/02 05:50:19;;;;;;;70.07;5.43;;;12.80;84.10;;;;;;5023646;28;20182;-84
2022/11/02 05:52:46;;;;;;;74.55;4.97;;;12.80;85.10;;;;;;5023675;28;20158;-84
2022/11/02 05:55:12;;;;;;;68.75;5.07;;;12.80;84.50;;;;;;5023947;28;20264;-84
2022/11/02 05:57:37;;;;;;;74.30;5.30;;;12.80;84.10;;;;;;5023476;28;20170;-84
2022/11/02 06:00:05;;;;;;;77.80;5.60;;;12.80;83.20;;;;;;5038365;28;20201;-84
2022/11/02 06:02:33;;;;;;;73.50;5.55;;;12.80;80.20;;;;;;5023767;28;20166;-84
2022/11/02 06:04:58;;;;;;;72.05;4.82;;;12.80;84.40;;;;;;5038253;28;20247;-84
2022/11/02 06:07:24;;;;;;;70.23;5.07;;;12.90;79.80;;;;;;5021779;28;20170;-84
2022/11/02 06:09:50;;;;;;;70.87;5.20;;;12.80;79.50;;;;;;5023413;28;20198;-84
2022/11/02 06:12:16;;;;;;;70.00;5.37;;;12.80;79.80;;;;;;5023703;28;20196;-84
2022/11/02 06:14:41;;;;;;;70.97;5.00;;;12.80;81.70;;;;;;5022667;28;20502;-84
2022/11/02 06:17:07;;;;;;;71.60;4.80;;;12.80;80.50;;;;;;5023242;28;20169;-84
2022/11/02 06:19:33;;;;;;;72.53;5.80;;;12.70;80.20;;;;;;5022978;28;20192;-84
2022/11/02 06:21:58;;;;;;;70.67;5.27;;;12.70;84.40;;;;;;5023051;28;20557;-84
2022/11/02 06:24:24;;;;;;;70.87;5.47;;;12.70;83.40;;;;;;5023030;28;20196;-84
2022/11/02 06:26:50;;;;;;;73.00;6.13;;;12.70;83.20;;;;;;5022916;28;20174;-84
2022/11/02 06:29:16;;;;;;;76.75;5.75;;;12.70;83.20;;;;;;5022392;28;20197;-83
2022/11/02 06:31:42;;;;;;;72.00;5.40;;;12.70;84.40;;;;;;5022605;28;20173;-83
2022/11/02 06:34:08;;;;;;;75.47;5.27;;;12.70;84.50;;;;;;5022545;28;20239;-86
2022/11/02 06:36:33;;;;;;;68.93;4.97;;;12.70;81.10;;;;;;5037968;28;20424;-84
2022/11/02 06:38:59;;;;;;;68.37;4.80;;;12.70;80.70;;;;;;5021790;28;20209;-84
2022/11/02 06:41:25;;;;;;;76.73;5.57;;;12.70;81.60;;;;;;5022131;28;20222;-84
2022/11/02 06:43:50;;;;;;;72.40;5.40;;;12.70;80.20;;;;;;5037138;28;20172;-84
2022/11/02 06:46:16;;;;;;;67.40;4.57;;;12.70;80.30;;;;;;5021551;28;20214;-84
2022/11/02 06:48:45;;;;;;;72.10;5.00;;;12.70;77.40;;;;;;5022070;28;20542;-84
2022/11/02 06:51:10;;;;;;;70.93;4.68;;;12.70;78.90;;;;;;5021442;28;20405;-84
2022/11/02 06:53:36;;;;;;;71.73;5.00;;;12.80;77.10;;;;;;5020154;28;20653;-83
2022/11/02 06:56:02;;;;;;;73.43;6.00;;;12.70;76.30;;;;;;5021871;28;20632;-84
2022/11/02 06:58:28;;;;;;;72.13;5.10;;;12.70;83.00;;;;;;5022388;28;20510;-84
2022/11/02 07:01:02;;;;;;;68.40;4.80;;;12.70;80.00;;;;;;5022482;28;20233;-83
2022/11/02 07:03:29;;;;;;;76.55;6.18;;;12.70;79.50;;;;;;5020889;28;20389;-84
2022/11/02 07:05:55;;;;;;;75.90;6.10;;;12.70;77.80;;;;;;5021490;28;20710;-83
2022/11/02 07:08:21;;;;;;;68.30;5.05;;;12.70;78.60;;;;;;5022713;28;20237;-83
2022/11/02 07:10:47;;;;;;;71.35;6.00;;;12.70;77.00;;;;;;5020688;28;20174;-84
2022/11/02 07:13:13;;;;;;;74.53;5.03;;;12.80;76.90;;;;;;5036784;28;20162;-83
2022/11/02 07:15:39;;;;;;;74.87;7.10;;;12.80;75.00;;;;;;5019995;28;20177;-83
2022/11/02 07:18:05;;;;;;;74.83;5.80;;;12.80;76.90;;;;;;5020361;28;20409;-83
2022/11/02 07:20:32;;;;;;;72.00;6.40;;;12.80;76.60;;;;;;5020608;28;20669;-83
2022/11/02 07:22:59;;;;;;;70.68;5.05;;;12.80;77.80;;;;;;5021120;28;20173;-84
2022/11/02 07:25:29;;;;;;;71.63;5.00;;;12.80;77.30;;;;;;5037818;28;20600;-84
2022/11/02 07:27:58;;;;;;;68.93;4.97;;;12.80;79.60;;;;;;5037962;28;20154;-84
2022/11/02 07:30:25;;;;;;;70.72;4.80;;;12.80;79.80;;;;;;5020834;28;20228;-84
2022/11/02 07:32:51;;;;;;;70.38;4.72;;;12.70;83.50;;;;;;5020746;28;20173;-83
2022/11/02 07:35:17;;;;;;;67.60;4.82;;;12.80;81.20;;;;;;5020651;28;20166;-83
2022/11/02 07:37:43;;;;;;;76.03;5.57;;;12.90;79.90;;;;;;5021181;28;20177;-84
2022/11/02 07:40:10;;;;;;;74.70;4.85;;;12.80;80.10;;;;;;5035544;28;20194;-83
2022/11/02 07:42:43;;;;;;;72.60;5.60;;;12.80;82.10;;;;;;5035418;28;20174;-83
2022/11/02 07:45:09;;;;;;;70.95;4.70;;;12.80;81.90;;;;;;5020156;28;20767;-83
2022/11/02 07:47:42;;;;;;;74.10;4.93;;;12.90;82.70;;;;;;5018785;28;20541;-83
2022/11/02 07:50:07;;;;;;;72.22;4.75;;;12.80;84.20;;;;;;5018923;28;20657;-83
2022/11/02 07:52:33;;;;;;;69.53;4.90;;;12.80;83.70;;;;;;5019329;28;20181;-83
2022/11/02 07:54:59;;;;;;;68.33;5.03;;;12.90;82.50;;;;;;5020624;28;20407;-84
2022/11/02 07:57:24;;;;;;;74.27;5.00;;;12.90;85.10;;;;;;5019570;28;20198;-83
2022/11/02 07:59:50;;;;;;;77.50;5.77;;;12.90;80.50;;;;;;5019901;28;20198;-84
2022/11/02 08:02:16;;;;;;;74.87;6.13;;;12.90;86.30;;;;;;5022009;28;20637;-84
2022/11/02 08:04:41;;;;;;;74.00;4.63;;;12.90;85.80;;;;;;5018708;28;20196;-83
2022/11/02 08:07:07;;;;;;;74.13;6.07;;;12.90;81.30;;;;;;5019184;28;20173;-83
2022/11/02 08:09:33;;;;;;;74.90;5.27;;;13.00;80.30;;;;;;5019900;28;20216;-83
2022/11/02 08:11:58;;;;;;;75.60;5.53;;;13.10;80.90;;;;;;5019901;28;20170;-83
2022/11/02 08:14:24;;;;;;;76.00;5.03;;;13.10;82.30;;;;;;5019471;28;20244;-83
2022/11/02 08:16:53;;;;;;;69.27;5.17;;;13.10;81.10;;;;;;5035350;28;20178;-83
2022/11/02 08:19:18;;;;;;;69.65;4.63;;;13.10;78.30;;;;;;5020190;28;20193;-84
2022/11/02 08:21:44;;;;;;;68.00;5.10;;;13.10;81.20;;;;;;5020177;28;20228;-83
2022/11/02 08:24:10;;;;;;;70.60;4.90;;;13.10;78.70;;;;;;5034462;28;20173;-83
2022/11/02 08:26:35;;;;;;;70.93;5.77;;;13.10;78.60;;;;;;5018168;28;20281;-83
2022/11/02 08:29:02;;;;;;;75.90;6.50;;;13.20;80.80;;;;;;5019310;28;20198;-84
2022/11/02 08:31:27;;;;;;;72.70;5.68;;;13.20;78.00;;;;;;5035077;28;20634;-84
2022/11/02 08:33:53;;;;;;;73.27;4.90;;;13.20;78.80;;;;;;5018640;28;20170;-84
2022/11/02 08:36:18;;;;;;;68.87;4.83;;;13.20;80.60;;;;;;5018365;28;20170;-83
2022/11/02 08:38:44;;;;;;;81.03;5.70;;;13.20;80.90;;;;;;5018515;28;20269;-83
2022/11/02 08:41:10;;;;;;;69.67;5.50;;;13.20;81.00;;;;;;5018503;28;20236;-83
2022/11/02 08:43:35;;;;;;;70.30;5.30;;;13.20;76.40;;;;;;5017211;28;20672;-83
2022/11/02 08:46:02;;;;;;;73.13;4.60;;;13.30;76.30;;;;;;5017086;28;20202;-83
2022/11/02 08:48:28;;;;;;;75.32;5.22;;;13.30;76.50;;;;;;5033746;28;20238;-83
2022/11/02 08:50:55;;;;;;;75.55;5.10;;;13.30;73.30;;;;;;5017074;28;20180;-83
2022/11/02 08:53:20;;;;;;;69.78;5.38;;;13.40;74.10;;;;;;5018582;28;20212;-83
2022/11/02 08:55:46;;;;;;;75.50;4.70;;;13.40;73.10;;;;;;5018336;28;20170;-83
2022/11/02 08:58:12;;;;;;;76.07;7.03;;;13.40;71.70;;;;;;5018519;28;20172;-84
2022/11/02 09:00:37;;;;;;;72.70;4.40;;;13.40;68.20;;;;;;5019312;28;20185;-83
2022/11/02 09:03:08;;;;;;;75.27;5.53;;;13.40;66.90;;;;;;5019121;28;20169;-83
2022/11/02 09:05:40;;;;;;;69.65;4.63;;;13.40;63.50;;;;;;5017890;28;20225;-84
2022/11/02 09:08:11;;;;;;;70.18;4.80;;;13.40;61.30;;;;;;5033163;28;20194;-83
2022/11/02 09:10:37;;;;;;;69.90;4.80;;;13.50;63.20;;;;;;5018709;28;20186;-84
2022/11/02 09:13:05;;;;;;;70.10;4.83;;;13.50;65.80;;;;;;5018645;28;20165;-83
2022/11/02 09:15:35;;;;;;;74.65;5.25;;;13.60;65.20;;;;;;5018002;28;20165;-83
2022/11/02 09:18:01;;;;;;;68.78;4.25;;;13.60;61.30;;;;;;5034283;28;20585;-84
2022/11/02 09:20:27;;;;;;;70.10;4.70;;;13.60;53.50;;;;;;5017870;28;20182;-83
2022/11/02 09:22:53;;;;;;;74.72;5.75;;;13.60;55.00;;;;;;5018855;28;20154;-83
2022/11/02 09:25:19;;;;;;;75.13;4.70;;;13.70;50.70;;;;;;5018765;28;20194;-83
2022/11/02 09:27:45;;;;;;;68.23;5.27;;;13.70;46.30;;;;;;5019179;28;20217;-84
2022/11/02 09:30:11;;;;;;;71.83;4.30;;;13.80;46.40;;;;;;5019005;28;20197;-84
2022/11/02 09:32:38;;;;;;;79.83;5.20;;;13.90;42.80;;;;;;5017170;28;20939;-83
2022/11/02 09:35:07;;;;;;;70.40;5.00;;;13.90;40.00;;;;;;5019145;28;20413;-84
2022/11/02 09:37:32;;;;;;;72.10;5.03;;;14.00;32.10;;;;;;5018702;28;20413;-84
2022/11/02 09:39:58;;;;;;;67.33;4.57;;;14.10;29.60;;;;;;5018824;28;20433;-84
2022/11/02 09:42:31;;;;;;;73.67;6.07;;;14.20;27.70;;;;;;5018220;28;20411;-83
2022/11/02 09:45:11;;;;;;;66.77;4.80;;;14.20;22.20;;;;;;5033248;28;20444;-83
2022/11/02 09:47:55;;;;;;;73.30;5.53;;;14.30;19.10;;;;;;5017142;28;20381;-82
2022/11/02 09:50:23;;;;;;;73.20;5.50;;;14.40;18.40;;;;;;5018192;28;20947;-83
2022/11/02 09:52:55;;;;;;;70.00;6.03;;;14.50;21.30;;;;;;5018780;28;20503;-83
2022/11/02 09:55:29;;;;;;;75.93;7.93;;;14.60;15.10;;;;;;5019505;28;20381;-83
2022/11/02 09:58:15;;;;;;;72.87;6.17;;;14.60;8.90;;;;;;5017675;28;20381;-83
2022/11/02 10:00:47;;;;;;;79.97;8.37;;;14.60;16.70;;;;;;5018084;28;20515;-83
2022/11/02 10:03:44;;;;;;;74.83;8.33;;;14.70;9.40;;;;;;5019082;28;20385;-83
2022/11/02 10:06:18;;;;;;;78.87;12.33;;;14.70;9.10;;;;;;5018749;28;20460;-83
2022/11/02 10:09:12;;;;;;;77.07;8.53;;;14.70;1.40;;;;;;5019424;28;20950;-83
2022/11/02 10:12:00;;;;;;;73.00;9.13;;;14.70;9.60;;;;;;5016811;28;20939;-83
2022/11/02 10:14:30;;;;;;;75.27;8.80;;;14.80;10.50;;;;;;5018462;28;20393;-83
2022/11/02 10:17:19;;;;;;;75.73;9.80;;;14.80;9.30;;;;;;5018379;28;20412;-83
2022/11/02 10:19:52;;;;;;;78.80;13.33;;;14.90;1.00;;;;;;5017668;28;20412;-83
2022/11/02 10:22:18;;;;;;;77.27;10.80;;;14.90;1.00;;;;;;5019358;28;20385;-84
2022/11/02 10:24:45;;;;;;;70.77;11.30;;;14.90;1.00;;;;;;5017328;28;20455;-83
2022/11/02 10:27:31;;;;;;;85.97;15.17;;;14.90;1.00;;;;;;5018144;28;20455;-83
2022/11/02 10:30:05;;;;;;;73.83;13.57;;;15.00;1.00;;;;;;5020395;28;20444;-83
2022/11/02 10:32:34;;;;;;;75.20;11.50;;;15.20;1.00;;;;;;5021598;28;20377;-83
2022/11/02 10:35:02;;;;;;;77.13;12.63;;;15.30;1.00;;;;;;5021586;28;20397;-83
2022/11/02 10:37:47;;;;;;;72.43;10.67;;;15.40;1.00;;;;;;5021368;28;20412;-84
2022/11/02 10:40:44;;;;;;;73.37;8.43;;;15.40;1.00;;;;;;5037383;28;20486;-83
2022/11/02 10:43:44;;;;;;;71.60;6.27;;;15.50;1.00;;;;;;5022002;28;20764;-83
2022/11/02 10:46:24;;;;;;;70.10;3.90;;;15.50;1.00;;;;;;5022224;28;20437;-84
2022/11/02 10:49:08;;;;;;;69.73;5.40;;;15.70;1.00;;;;;;5021652;28;20409;-83
2022/11/02 10:51:34;;;;;;;76.40;4.67;;;15.80;1.00;;;;;;5021462;28;20373;-83
2022/11/02 10:54:00;;;;;;;69.50;4.97;;;15.70;1.00;;;;;;5021096;28;20456;-83
2022/11/02 10:56:32;;;;;;;74.97;5.40;;;15.80;1.00;;;;;;5020884;28;20171;-83
2022/11/02 10:58:58;;;;;;;77.53;3.93;;;15.90;1.00;;;;;;5021190;28;20194;-83
2022/11/02 11:01:24;;;;;;;70.83;4.43;;;16.00;1.00;;;;;;5020863;28;20413;-83
2022/11/02 11:03:55;;;;;;;73.40;3.23;;;16.10;1.00;;;;;;5020979;28;20162;-84
2022/11/02 11:06:37;;;;;;;76.97;4.00;;;16.10;1.00;;;;;;5020516;28;20447;-83
2022/11/02 11:09:06;;;;;;;71.60;3.50;;;16.10;1.00;;;;;;5020738;28;20422;-82
2022/11/02 11:11:35;;;;;;;71.23;2.80;;;16.10;1.00;;;;;;5036688;28;20477;-83
2022/11/02 11:14:18;;;;;;;71.20;3.83;;;16.10;1.00;;;;;;5020887;28;20397;-83
2022/11/02 11:16:51;;;;;;;69.27;3.30;;;16.00;1.00;;;;;;5021365;28;20384;-83
2022/11/02 11:19:35;;;;;;;69.40;3.20;;;16.00;1.00;;;;;;5021328;28;20419;-83
2022/11/02 11:22:02;;;;;;;70.70;3.57;;;15.90;1.00;;;;;;5036977;28;20492;-84
2022/11/02 11:24:33;;;;;;;67.63;2.63;;;15.90;1.00;;;;;;5021185;28;20417;-83
2022/11/02 11:27:01;;;;;;;69.17;3.07;;;15.90;1.00;;;;;;5020234;28;20968;-83
2022/11/02 11:29:33;;;;;;;70.60;3.30;;;16.20;1.00;;;;;;5094502;23;20834;-87
2022/11/02 11:32:01;;;;;;;70.30;3.63;;;16.30;1.00;;;;;;5054411;28;20404;-85
2022/11/02 11:34:32;;;;;;;69.20;3.87;;;16.50;1.00;;;;;;5037714;28;20394;-85
2022/11/02 11:37:10;;;;;;;69.97;2.90;;;16.60;1.00;;;;;;5037468;28;20401;-85
2022/11/02 11:39:39;;;;;;;70.43;2.93;;;16.50;1.00;;;;;;5056883;28;20438;-85
2022/11/02 11:42:19;;;;;;;72.70;3.33;;;16.70;1.00;;;;;;5041608;28;21022;-85
2022/11/02 11:44:54;;;;;;;73.67;3.90;;;16.80;1.00;;;;;;5042465;28;20402;-85
2022/11/02 11:47:39;;;;;;;71.23;3.83;;;16.90;1.00;;;;;;5041622;28;20779;-84
2022/11/02 11:50:14;;;;;;;69.27;3.67;;;16.90;1.00;;;;;;5042649;28;20561;-84
2022/11/02 11:52:40;;;;;;;73.57;3.90;;;16.90;1.00;;;;;;5042888;28;20481;-83
2022/11/02 11:55:28;;;;;;;70.97;4.40;;;16.90;1.00;;;;;;5043523;28;20411;-84
2022/11/02 11:58:12;;;;;;;70.43;3.40;;;16.60;1.00;;;;;;5041100;28;20398;-85
2022/11/02 12:00:37;;;;;;;69.63;4.27;;;16.40;1.00;;;;;;5038661;28;20439;-86
2022/11/02 12:03:09;;;;;;;73.00;3.37;;;16.40;1.00;;;;;;5040952;28;20414;-85
2022/11/02 12:06:04;;;;;;;69.80;3.57;;;16.50;1.00;;;;;;5041272;28;20372;-85
2022/11/02 12:08:52;;;;;;;70.57;3.73;;;16.60;1.00;;;;;;5043080;28;20464;-85
2022/11/02 12:11:23;;;;;;;70.00;3.67;;;16.60;1.00;;;;;;5040472;28;20395;-85
2022/11/02 12:14:15;;;;;;;67.83;3.43;;;16.70;1.00;;;;;;5040806;28;20906;-85
2022/11/02 12:16:58;;;;;;;76.30;9.13;;;16.70;1.00;;;;;;5013308;28;20870;-86
2022/11/02 12:20:13;;;;;;;67.50;4.10;;;16.60;1.00;;;;;;5041220;28;20424;-85
2022/11/02 12:23:26;;;;;;;69.80;3.70;;;16.60;1.00;;;;;;4995409;28;20856;-85
2022/11/02 12:26:29;;;;;;;75.67;3.87;;;16.60;1.00;;;;;;5016167;28;20449;-85
2022/11/02 12:29:33;;;;;;;66.97;3.50;;;16.50;1.00;;;;;;5009792;28;20459;-85
2022/11/02 12:32:23;;;;;;;68.80;3.80;;;16.30;1.00;;;;;;5038518;28;20410;-85
2022/11/02 12:35:05;;;;;;;75.37;3.90;;;16.10;1.00;;;;;;5042019;28;20385;-85
2022/11/02 12:37:49;;;;;;;71.37;4.20;;;16.10;1.00;;;;;;5041999;28;20424;-85
2022/11/02 12:40:24;;;;;;;71.33;3.60;;;16.10;1.00;;;;;;5040218;28;20438;-84
2022/11/02 12:43:03;;;;;;;69.27;4.03;;;16.10;1.00;;;;;;5040832;28;20503;-85
2022/11/02 12:45:46;;;;;;;72.83;4.07;;;16.10;1.00;;;;;;5042188;28;20442;-84
2022/11/02 12:48:24;;;;;;;70.47;3.60;;;16.10;1.00;;;;;;5039402;28;20406;-84
2022/11/02 12:51:03;;;;;;;71.87;4.30;;;16.00;1.00;;;;;;5038545;28;20405;-85
2022/11/02 12:53:53;;;;;;;70.80;4.10;;;16.00;1.00;;;;;;5040962;28;20444;-85
2022/11/02 12:56:26;;;;;;;68.87;4.57;;;16.00;1.00;;;;;;5057534;28;20406;-85
2022/11/02 12:58:53;;;;;;;70.03;3.77;;;16.00;1.00;;;;;;5041304;28;20431;-85
2022/11/02 13:01:39;;;;;;;75.17;4.23;;;16.00;1.00;;;;;;5040973;28;20401;-85
2022/11/02 13:04:20;;;;;;;74.47;4.60;;;16.00;1.00;;;;;;5041492;28;20771;-85
2022/11/02 13:06:50;;;;;;;68.10;3.70;;;16.10;1.00;;;;;;5042419;28;20471;-84
2022/11/02 13:09:24;;;;;;;67.90;3.63;;;16.10;1.00;;;;;;5040639;28;20426;-84
2022/11/02 13:12:18;;;;;;;70.83;3.40;;;16.10;1.00;;;;;;5041454;28;20412;-85